Latest Weather Observations for Aireys Inlet

IDV60801

Issued at 2:32 pm EST Tuesday 25 July 2017 (issued every 30 minutes, with the page automatically refreshed every 10 minutes)

About weather observations | Map of weather stations | Latest weather observations for VIC | Other Formats
Station Details ID: 090180 Name: AIREYS INLET Lat: -38.46 Lon: 144.09 Height: 105.0 m
Data from the previous 72 hours. | See also: Recent months at Aireys Inlet
Date/Time
EST
Temp
°C
App
Temp
°C
Dew
Point
°C
Rel
Hum
%
Delta-T
°C
Wind Press
QNH
hPa
Press
MSL
hPa
Rain since
9am
mm
Dir  Spd
km/h
Gust
km/h
Spd
kts
Gust
kts
25/02:30pm 16.8 11.3 9.2 61 4.0 WNW 28 56 15 30 - - 0.0
25/02:03pm 16.4 10.7 8.4 59 4.1 WNW 28 50 15 27 - - 0.0
25/02:00pm 16.5 11.6 8.5 59 4.1 WNW 24 43 13 23 - - 0.0
25/01:48pm 16.4 10.3 8.4 59 4.1 NW 30 52 16 28 - - 0.0
25/01:30pm 16.7 11.4 8.4 58 4.3 NW 26 39 14 21 - - 0.0
25/01:00pm 16.1 12.4 7.8 58 4.2 WNW 17 43 9 23 - - 0.0
25/12:30pm 16.4 12.3 7.9 57 4.3 WNW 19 39 10 21 - - 0.0
25/12:00pm 15.8 12.7 7.3 57 4.2 WNW 13 30 7 16 - - 0.0
25/11:30am 15.8 13.8 7.3 57 4.2 NW 7 20 4 11 - - 0.0
25/11:00am 14.5 11.5 7.5 63 3.5 E 13 20 7 11 - - 0.0
25/10:30am 13.0 11.1 7.5 69 2.7 ENE 7 15 4 8 - - 0.0
25/10:00am 12.0 9.2 7.1 72 2.4 ENE 11 17 6 9 - - 0.0
25/09:30am 10.9 7.6 6.5 74 2.1 ENE 13 20 7 11 - - 0.0
25/09:00am 9.8 6.5 6.2 78 1.7 NE 13 20 7 11 - - 0.2
25/08:30am 9.2 6.2 5.9 80 1.5 NE 11 19 6 10 - - 0.2
25/08:00am 8.4 5.0 6.0 85 1.1 NE 13 17 7 9 - - 0.2
25/07:30am 8.1 5.1 5.9 86 1.0 NE 11 15 6 8 - - 0.2
25/07:00am 7.9 4.9 5.9 87 0.9 NNE 11 15 6 8 - - 0.2
25/06:30am 8.4 5.4 6.2 86 1.0 NNE 11 17 6 9 - - 0.2
25/06:00am 8.8 5.1 6.3 84 1.2 NNE 15 22 8 12 - - 0.2
25/05:30am 9.3 4.9 6.6 83 1.3 NNE 19 24 10 13 - - 0.2
25/05:00am 9.5 4.5 6.6 82 1.4 N 22 32 12 17 - - 0.2
25/04:30am 9.4 3.3 6.8 84 1.2 NNW 28 39 15 21 - - 0.2
25/04:00am 9.6 3.6 6.9 83 1.3 NNW 28 39 15 21 - - 0.2
25/03:30am 10.2 3.3 7.1 81 1.5 NW 33 48 18 26 - - 0.2
25/03:00am 10.6 3.3 7.3 80 1.6 NW 35 50 19 27 - - 0.2
25/02:30am 10.5 3.8 7.4 81 1.5 NNW 32 50 17 27 - - 0.2
25/02:08am 10.5 4.6 7.4 81 1.5 NW 28 48 15 26 - - 0.2
25/02:00am 10.3 5.1 7.4 82 1.4 NW 24 35 13 19 - - 0.2
25/01:30am 10.3 4.4 7.5 83 1.3 NW 28 41 15 22 - - 0.2
25/01:00am 10.4 3.6 7.5 82 1.4 NW 33 44 18 24 - - 0.2
25/12:30am 10.2 5.8 7.6 84 1.3 NW 20 37 11 20 - - 0.0
25/12:00am 9.6 8.2 7.2 85 1.1 NW 4 9 2 5 - - 0.0
 
Date/Time
EST
Temp
°C
App
Temp
°C
Dew
Point
°C
Rel
Hum
%
Delta-T
°C
Wind Press
QNH
hPa
Press
MSL
hPa
Rain since
9am
mm
Dir  Spd
km/h
Gust
km/h
Spd
kts
Gust
kts
24/11:30pm 9.7 7.9 7.1 84 1.2 NW 6 11 3 6 - - 0.0
24/11:00pm 9.8 7.4 7.1 83 1.3 NNW 9 17 5 9 - - 0.0
24/10:30pm 9.9 5.5 7.2 83 1.3 NW 20 32 11 17 - - 0.0
24/10:00pm 9.9 6.0 7.3 84 1.2 NW 17 24 9 13 - - 0.0
24/09:30pm 10.0 6.1 7.3 83 1.3 NW 17 22 9 12 - - 0.0
24/09:00pm 10.1 8.7 7.2 82 1.4 N 4 9 2 5 - - 0.0
24/08:30pm 10.4 8.7 7.5 82 1.4 NW 6 9 3 5 - - 0.0
24/08:00pm 10.9 9.0 7.6 80 1.6 NW 7 13 4 7 - - 0.0
24/07:30pm 10.9 9.6 7.6 80 1.6 WNW 4 7 2 4 - - 0.0
24/07:00pm 10.4 8.7 7.5 82 1.4 NW 6 7 3 4 - - 0.0
24/06:30pm 10.6 8.9 7.7 82 1.4 NW 6 7 3 4 - - 0.0
24/06:00pm 11.4 9.2 7.7 78 1.8 WNW 9 13 5 7 - - 0.0
24/05:30pm 11.7 9.8 7.4 75 2.1 NW 7 13 4 7 - - 0.0
24/05:00pm 12.7 9.7 7.6 71 2.5 NW 13 19 7 10 - - 0.0
24/04:30pm 12.8 9.9 8.1 73 2.3 WNW 13 22 7 12 - - 0.0
24/04:00pm 12.6 9.3 8.1 74 2.2 NW 15 26 8 14 - - 0.0
24/03:30pm 12.6 9.8 8.5 76 2.0 NW 13 20 7 11 - - 0.0
24/03:00pm 13.0 8.8 8.1 72 2.4 NW 20 35 11 19 - - 0.0
24/02:30pm 13.3 9.1 8.2 71 2.5 WNW 20 32 11 17 - - 0.0
24/02:00pm 11.4 8.2 8.6 83 1.4 NW 15 22 8 12 - - 0.0
24/01:30pm 12.1 9.6 8.4 78 1.8 W 11 20 6 11 - - 0.0
24/01:00pm 12.5 9.2 8.2 75 2.1 WNW 15 28 8 15 - - 0.0
24/12:30pm 12.8 9.6 8.3 74 2.2 WNW 15 30 8 16 - - 0.0
24/12:00pm 11.4 8.1 7.9 79 1.7 NW 15 30 8 16 - - 0.0
24/11:30am 10.8 8.0 8.6 86 1.1 NW 13 20 7 11 - - 0.0
24/11:00am 10.4 6.1 7.8 84 1.3 NW 20 33 11 18 - - 0.0
24/10:30am 9.8 5.8 8.4 91 0.7 NW 19 26 10 14 - - 0.0
24/10:00am 9.0 4.9 7.8 92 0.6 NW 19 26 10 14 - - 0.0
24/09:30am 8.9 3.8 7.5 91 0.7 NW 24 33 13 18 - - 0.0
24/09:00am 8.6 5.6 7.8 95 0.4 NW 13 24 7 13 - - 0.2
24/08:30am 8.1 4.6 7.3 95 0.4 NW 15 24 8 13 - - 0.2
24/08:00am 7.8 3.9 7.1 95 0.3 NW 17 28 9 15 - - 0.2
24/07:30am 7.5 3.9 6.8 95 0.3 WNW 15 20 8 11 - - 0.2
24/07:00am 7.5 5.6 6.6 94 0.4 NW 6 13 3 7 - - 0.2
24/06:30am 7.9 5.5 7.0 94 0.4 WNW 9 15 5 8 - - 0.2
24/06:00am 8.0 6.0 6.9 93 0.5 WNW 7 11 4 6 - - 0.2
24/05:30am 8.2 5.4 7.1 93 0.5 NW 11 17 6 9 - - 0.2
24/05:00am 8.4 4.9 7.3 93 0.5 NW 15 22 8 12 - - 0.2
24/04:30am 8.0 4.4 6.9 93 0.5 NW 15 19 8 10 - - 0.2
24/04:00am 8.1 5.2 6.7 91 0.6 WNW 11 15 6 8 - - 0.2
24/03:30am 8.3 5.1 6.9 91 0.7 NW 13 17 7 9 - - 0.2
24/03:00am 8.4 5.6 6.9 90 0.7 WNW 11 13 6 7 - - 0.2
24/02:30am 8.4 5.2 7.0 91 0.7 NW 13 15 7 8 - - 0.2
24/02:00am 8.2 5.0 7.0 92 0.6 NW 13 17 7 9 - - 0.2
24/01:30am 8.4 5.7 7.2 92 0.6 W 11 17 6 9 - - 0.2
24/01:00am 8.4 5.7 7.3 93 0.5 NW 11 13 6 7 - - 0.0
24/12:30am 8.5 5.4 7.3 92 0.6 NW 13 19 7 10 - - 0.0
24/12:00am 8.6 5.5 7.4 92 0.6 NW 13 17 7 9 - - 0.0
 
Date/Time
EST
Temp
°C
App
Temp
°C
Dew
Point
°C
Rel
Hum
%
Delta-T
°C
Wind Press
QNH
hPa
Press
MSL
hPa
Rain since
9am
mm
Dir  Spd
km/h
Gust
km/h
Spd
kts
Gust
kts
23/11:30pm 9.0 6.7 7.6 91 0.7 NW 9 13 5 7 - - 0.0
23/11:00pm 9.0 6.0 7.5 90 0.7 WNW 13 15 7 8 - - 0.0
23/10:30pm 9.0 6.3 7.3 89 0.8 WNW 11 15 6 8 - - 0.0
23/10:00pm 9.3 5.5 7.7 90 0.8 WNW 17 20 9 11 - - 0.0
23/09:30pm 9.2 5.9 8.1 93 0.5 NW 15 19 8 10 - - 0.0
23/09:00pm 9.4 6.4 7.8 90 0.8 WNW 13 17 7 9 - - 0.0
23/08:30pm 9.4 6.4 7.8 90 0.8 WNW 13 17 7 9 - - 0.0
23/08:00pm 9.5 6.9 7.8 89 0.8 NW 11 13 6 7 - - 0.0
23/07:30pm 9.7 6.3 7.8 88 0.9 WNW 15 19 8 10 - - 0.0
23/07:00pm 9.8 6.4 7.7 87 1.0 WNW 15 19 8 10 - - 0.0
23/06:30pm 9.9 7.4 8.2 89 0.8 NW 11 17 6 9 - - 0.0
23/06:00pm 10.3 7.4 8.2 87 1.0 WNW 13 19 7 10 - - 0.0
23/05:30pm 10.5 7.6 8.1 85 1.2 W 13 19 7 10 - - 0.0
23/05:00pm 11.4 8.0 7.5 77 1.9 W 15 26 8 14 - - 0.0
23/04:30pm 12.3 8.1 7.6 73 2.3 W 19 26 10 14 - - 0.0
23/04:00pm 12.3 7.6 7.6 73 2.3 W 22 35 12 19 - - 0.0
23/03:30pm 12.5 8.3 7.6 72 2.4 W 19 32 10 17 - - 0.0
23/03:00pm 12.7 8.3 7.6 71 2.5 W 20 30 11 16 - - 0.0
23/02:30pm 12.2 6.0 7.7 74 2.2 WSW 30 39 16 21 - - 0.0
23/02:22pm 11.8 7.8 8.1 78 1.8 WSW 19 39 10 21 - - 0.0
23/02:00pm 12.3 10.8 9.1 81 1.6 W 7 11 4 6 - - 0.0
23/01:30pm 12.4 9.2 8.3 76 2.0 W 15 30 8 16 - - 0.0
23/01:00pm 12.5 8.5 8.2 75 2.1 WNW 19 32 10 17 - - 0.0
23/12:30pm 12.6 10.3 8.9 78 1.9 W 11 20 6 11 - - 0.0
23/12:00pm 12.6 10.4 9.4 81 1.6 WNW 11 22 6 12 - - 0.0
23/11:30am 11.9 8.9 9.1 83 1.4 WNW 15 28 8 15 - - 0.0
23/11:00am 11.7 9.1 9.4 86 1.2 WNW 13 26 7 14 - - 0.0
23/10:30am 11.1 9.8 9.2 88 1.0 NW 6 17 3 9 - - 0.0
23/10:00am 10.8 8.8 8.6 86 1.1 NW 9 24 5 13 - - 0.0
23/09:30am 10.7 8.2 8.1 84 1.3 NW 11 20 6 11 - - 0.0
23/09:00am 10.4 8.2 7.8 84 1.3 NNW 9 20 5 11 - - 0.4
23/08:30am 10.0 7.4 7.6 85 1.2 NW 11 22 6 12 - - 0.4
23/08:00am 9.8 6.2 6.9 82 1.4 NW 15 35 8 19 - - 0.4
23/07:30am 10.0 5.1 6.7 80 1.6 NW 22 52 12 28 - - 0.4
23/07:00am 9.7 4.3 6.4 80 1.5 NW 24 43 13 23 - - 0.4
23/06:30am 9.5 4.0 5.7 77 1.7 NW 24 44 13 24 - - 0.4
23/06:00am 9.1 4.4 5.1 76 1.8 NW 19 30 10 16 - - 0.4
23/05:30am 8.9 3.2 4.7 75 1.9 NW 24 48 13 26 - - 0.4
23/05:00am 8.9 1.9 4.3 73 2.0 NW 30 52 16 28 - - 0.4
23/04:30am 8.7 0.8 4.1 73 2.0 NW 35 57 19 31 - - 0.4
23/04:08am 8.1 -0.1 4.9 80 1.4 NW 37 56 20 30 - - 0.4
23/04:00am 8.2 -0.4 4.4 77 1.7 NW 39 56 21 30 - - 0.2
23/03:36am 8.2 0.9 4.4 77 1.7 NW 32 54 17 29 - - 0.2
23/03:30am 8.3 0.7 4.1 75 1.8 NW 33 52 18 28 - - 0.2
23/03:00am 9.2 1.5 3.4 67 2.5 NW 33 56 18 30 - - 0.0
23/02:31am 10.7 1.9 1.5 53 3.9 NW 37 61 20 33 - - 0.0
23/02:30am 10.6 1.8 1.4 53 3.9 NW 37 56 20 30 - - 0.0
23/02:00am 10.6 1.9 1.7 54 3.8 NW 37 57 20 31 - - 0.0
23/01:30am 10.7 1.6 1.8 54 3.8 NW 39 59 21 32 - - 0.0
23/01:00am 10.6 2.3 1.9 55 3.7 NW 35 61 19 33 - - 0.0
23/12:45am 10.5 3.1 1.9 55 3.7 NNW 30 52 16 28 - - 0.0
23/12:30am 10.4 3.4 1.8 55 3.6 NNW 28 44 15 24 - - 0.0
23/12:00am 11.0 3.0 1.8 53 3.9 NNW 33 57 18 31 - - 0.0
 
Date/Time
EST
Temp
°C
App
Temp
°C
Dew
Point
°C
Rel
Hum
%
Delta-T
°C
Wind Press
QNH
hPa
Press
MSL
hPa
Rain since
9am
mm
Dir  Spd
km/h
Gust
km/h
Spd
kts
Gust
kts
22/11:30pm 11.1 4.0 1.6 52 4.0 N 28 59 15 32 - - 0.0
22/11:26pm 11.2 4.2 1.7 52 4.0 N 28 59 15 32 - - 0.0
22/11:00pm 10.8 5.3 1.9 54 3.8 N 20 43 11 23 - - 0.0
22/10:30pm 10.4 6.3 2.0 56 3.6 NNE 13 24 7 13 - - 0.0
22/10:00pm 10.3 5.8 2.2 57 3.5 N 15 32 8 17 - - 0.0
22/09:30pm 10.6 4.4 2.4 57 3.5 N 24 41 13 22 - - 0.0
22/09:00pm 10.6 3.7 2.7 58 3.4 NNW 28 46 15 25 - - 0.0
22/08:30pm 10.9 2.7 2.7 57 3.6 NNW 35 59 19 32 - - 0.0
22/08:00pm 11.0 2.1 3.1 58 3.5 NNW 39 57 21 31 - - 0.0
22/07:30pm 11.0 2.1 3.3 59 3.4 NNW 39 59 21 32 - - 0.0
22/07:01pm 11.0 2.2 3.5 60 3.3 NNW 39 59 21 32 - - 0.0
22/07:00pm 11.0 2.2 3.5 60 3.3 NNW 39 56 21 30 - - 0.0
22/06:41pm 11.1 2.7 3.6 60 3.3 NW 37 57 20 31 - - 0.0
22/06:30pm 11.1 2.4 3.9 61 3.2 NW 39 56 21 30 - - 0.0
22/06:00pm 11.3 3.3 3.8 60 3.3 NW 35 52 19 28 - - 0.0
22/05:47pm 11.4 3.4 3.7 59 3.4 NNW 35 56 19 30 - - 0.0
22/05:30pm 11.5 3.5 3.8 59 3.4 NNW 35 52 19 28 - - 0.0
22/05:00pm 12.2 4.9 4.4 59 3.6 NNW 32 48 17 26 - - 0.0
22/04:30pm 12.7 4.4 4.2 56 3.9 NNW 37 57 20 31 - - 0.0
22/04:01pm 12.9 5.9 4.3 56 3.9 NNW 30 50 16 27 - - 0.0
22/04:00pm 12.9 5.5 4.1 55 4.0 NNW 32 50 17 27 - - 0.0
22/03:30pm 13.6 6.1 4.2 53 4.3 NNW 33 54 18 29 - - 0.0
22/03:00pm 13.6 4.1 3.7 51 4.5 NNW 43 72 23 39 - - 0.0
22/02:44pm 13.4 6.5 4.8 56 4.0 NNW 30 57 16 31 - - 0.0

Other Formats:

Comma delimited format used in spreadsheet applications
http://www.bom.gov.au/fwo/IDV60801/IDV60801.94846.axf

JavaScript Object Notation format (JSON) in row-major order
http://www.bom.gov.au/fwo/IDV60801/IDV60801.94846.json